KGYR/GYR METAR and TAF weather

Enter ICAO airport designator
Station Type Date Time Source
KGYR METAR 2022/01/29 12:47 UTC NOAA

KGYR 291247Z 02006KT 10SM FEW250 09/M07 A3019 RMK FIRST


Station Type Date Time Source
KGYR Decoded METAR 2022/01/29 12:47 UTC NOAA

Goodyear Municipal, AZ, United States (KGYR) 33-25N 112-23W
Jan 29, 2022 - 07:47 AM EST / 2022.01.29 1247 UTC
Wind: from the NNE (020 degrees) at 7 MPH (6 KT):0
Visibility: 10 mile(s):0
Sky conditions: mostly clear
Temperature: 48 F (9 C)
Dew Point: 19 F (-7 C)
Relative Humidity: 31%
Pressure (altimeter): 30.19 in. Hg (1022 hPa)
ob: KGYR 291247Z 02006KT 10SM FEW250 09/M07 A3019 RMK FIRST
cycle: 13

Station Type Date Time Source
KGYR TAF UTC NOAA

Error!

Example: see airport list